Plainfield, NJ

10:14 AM EDT on August 28, 2015 (GMT -0400)
Municipal | | Change Station
CLOSE
Current Station
Personal Weather Station
Location: Watchung, NJ
Elevation: 233 ft
Nearby Weather Stations

Elev 233 ft 40.64 °N, 74.45 °W | Updated 7 minutes ago

Clear
Clear
69.5 °F
Feels Like 69.5 °F
N
3.0
Wind Variable Wind from North
Gusts 6.0 mph

Today
High -- | Low -- °F
--% Chance of Precip.
Yesterday
High -- | Low -- °F
Precip. -- in
6:20 AM 7:36 PM
Waxing Gibbous, 98% visible
Pressure 30.20 in
Visibility 10.0 miles
Clouds Clear
Dew Point 56 °F
Humidity 63%
Rainfall 0.00 in
Snow Depth Not available.
UV 5 out of 12
Pollen 10.00 out of 12
Air Quality Not available.
Flu Activity Not available.
METAR KLDJ 281355Z AUTO 00000KT 10SM CLR 23/10 A3020 RMK AO2 T02310102
Pressure 30.20 in
Visibility 10.0 miles
Clouds Clear
Dew Point 56 °F
Humidity 63%
Rainfall 0.00 in
Snow Depth Not available.
UV 5 out of 12
Pollen 10.00 out of 12
Air Quality Not available.
Flu Activity Not available.
METAR KLDJ 281355Z AUTO 00000KT 10SM CLR 23/10 A3020 RMK AO2 T02310102

10-Day Weather Forecast

×

Almanac

Astronomy

Aug. 28, 2015 Rise Set
Actual Time
Civil Twilight
Nautical Twilight
Astronomical Twilight
Moon
Length of Visible Light
Length of Day
Tomorrow will be .
, % of the Moon is Illuminated

Today's Extremes

State Highs State Lows

Community

WunderPhotos

Upload Photos

1,850,379 photos uploaded!

WunderBlogs® & News

Nearby

Air Quality

  Air Quality AQ Index Pollutant
Not available.

Snow Depth

Station Depth Elevation

Earthquake Activity

City Distance Mag. Time & Date
Minimum magnitude displayed is 2.5.

Coastal Water Temperatures

Place Temperature

Stations

Nearby Weather Stations

Station Location Temp. Windchill Dew Point Humidity Wind Precip. Elev Updated Type